Map

Track Data

SID SEASON NUMBER BASIN SUBBASIN NAME ISO_TIME NATURE LAT LON WMO_WIND WMO_PRES WMO_AGENCY TRACK_TYPE DIST2LAND LANDFALL IFLAG USA_AGENCY USA_ATCF_ID USA_LAT USA_LON USA_RECORD USA_STATUS USA_WIND USA_PRES USA_SSHS USA_R34_NE USA_R34_SE USA_R34_SW USA_R34_NW USA_R50_NE USA_R50_SE USA_R50_SW USA_R50_NW USA_R64_NE USA_R64_SE USA_R64_SW USA_R64_NW USA_POCI USA_ROCI USA_RMW USA_EYE TOKYO_LAT TOKYO_LON TOKYO_GRADE TOKYO_WIND TOKYO_PRES TOKYO_R50_DIR TOKYO_R50_LONG TOKYO_R50_SHORT TOKYO_R30_DIR TOKYO_R30_LONG TOKYO_R30_SHORT TOKYO_LAND CMA_LAT CMA_LON CMA_CAT CMA_WIND CMA_PRES HKO_LAT HKO_LON HKO_CAT HKO_WIND HKO_PRES NEWDELHI_LAT NEWDELHI_LON NEWDELHI_GRADE NEWDELHI_WIND NEWDELHI_PRES NEWDELHI_CI NEWDELHI_DP NEWDELHI_POCI REUNION_LAT REUNION_LON REUNION_TYPE REUNION_WIND REUNION_PRES REUNION_TNUM REUNION_CI REUNION_RMW REUNION_R34_NE REUNION_R34_SE REUNION_R34_SW REUNION_R34_NW REUNION_R50_NE REUNION_R50_SE REUNION_R50_SW REUNION_R50_NW REUNION_R64_NE REUNION_R64_SE REUNION_R64_SW REUNION_R64_NW BOM_LAT BOM_LON BOM_TYPE BOM_WIND BOM_PRES BOM_TNUM BOM_CI BOM_RMW BOM_R34_NE BOM_R34_SE BOM_R34_SW BOM_R34_NW BOM_R50_NE BOM_R50_SE BOM_R50_SW BOM_R50_NW BOM_R64_NE BOM_R64_SE BOM_R64_SW BOM_R64_NW BOM_ROCI BOM_POCI BOM_EYE BOM_POS_METHOD BOM_PRES_METHOD NADI_LAT NADI_LON NADI_CAT NADI_WIND NADI_PRES WELLINGTON_LAT WELLINGTON_LON WELLINGTON_WIND WELLINGTON_PRES DS824_LAT DS824_LON DS824_STAGE DS824_WIND DS824_PRES TD9636_LAT TD9636_LON TD9636_STAGE TD9636_WIND TD9636_PRES TD9635_LAT TD9635_LON TD9635_WIND TD9635_PRES TD9635_ROCI NEUMANN_LAT NEUMANN_LON NEUMANN_CLASS NEUMANN_WIND NEUMANN_PRES MLC_LAT MLC_LON MLC_CLASS MLC_WIND MLC_PRES USA_GUST BOM_GUST BOM_GUST_PER REUNION_GUST REUNION_GUST_PER USA_SEAHGT USA_SEARAD_NE USA_SEARAD_SE USA_SEARAD_SW USA_SEARAD_NW STORM_SPEED STORM_DIR
1860208N11301 1860 19 NA NA NOT_NAMED 1860-07-25 12:00:00 TS 11.0000 -59.0000 main 221 132 _____________O -1 11.0000 -59.0000 TS 35 19 286
1860208N11301 1860 19 NA NA NOT_NAMED 1860-07-25 15:00:00 TS 11.2631 -59.9471 main 137 89 _____________P -1 11.2631 -59.9471 TS 35 19 285
1860208N11301 1860 19 NA CS NOT_NAMED 1860-07-25 18:00:00 TS 11.5000 -60.9000 main 90 89 _____________O -1 11.5000 -60.9000 TS 35 19 283
1860208N11301 1860 19 NA CS NOT_NAMED 1860-07-25 21:00:00 TS 11.6998 -61.8578 main 114 112 _____________P -1 11.6998 -61.8578 TS 40 19 282
1860208N11301 1860 19 NA CS NOT_NAMED 1860-07-26 00:00:00 TS 11.9000 -62.8000 main 134 134 _____________O -1 11.9000 -62.8000 TS 45 19 284
1860208N11301 1860 19 NA CS NOT_NAMED 1860-07-26 03:00:00 TS 12.1496 -63.7001 main 167 167 _____________P -1 12.1496 -63.7001 TS 45 18 286
1860208N11301 1860 19 NA CS NOT_NAMED 1860-07-26 06:00:00 TS 12.4000 -64.6000 main 206 206 _____________O -1 12.4000 -64.6000 TS 45 19 284
1860208N11301 1860 19 NA CS NOT_NAMED 1860-07-26 09:00:00 TS 12.6000 -65.5727 main 228 225 _____________P -1 12.6000 -65.5727 TS 45 19 282
1860208N11301 1860 19 NA CS NOT_NAMED 1860-07-26 12:00:00 TS 12.8000 -66.5000 main 246 240 _____________O -1 12.8000 -66.5000 TS 45 17 285
1860208N11301 1860 19 NA CS NOT_NAMED 1860-07-26 15:00:00 TS 13.0495 -67.2801 main 234 229 _____________P -1 13.0495 -67.2801 TS 45 15 289
1860208N11301 1860 19 NA CS NOT_NAMED 1860-07-26 18:00:00 TS 13.3000 -68.0000 main 229 203 _____________O -1 13.3000 -68.0000 TS 45 15 288
1860208N11301 1860 19 NA CS NOT_NAMED 1860-07-26 21:00:00 TS 13.5073 -68.7502 main 197 180 _____________P -1 13.5073 -68.7502 TS 45 15 285
1860208N11301 1860 19 NA CS NOT_NAMED 1860-07-27 00:00:00 TS 13.7000 -69.5000 main 184 180 _____________O -1 13.7000 -69.5000 TS 45 15 285
1860208N11301 1860 19 NA CS NOT_NAMED 1860-07-27 03:00:00 TS 13.8998 -70.2501 main 201 194 _____________P -1 13.8998 -70.2501 TS 45 15 285
1860208N11301 1860 19 NA CS NOT_NAMED 1860-07-27 06:00:00 TS 14.1000 -71.0000 main 197 193 _____________O -1 14.1000 -71.0000 TS 45 15 285
1860208N11301 1860 19 NA CS NOT_NAMED 1860-07-27 09:00:00 TS 14.2847 -71.7428 main 212 212 _____________P -1 14.2847 -71.7428 TS 45 15 285
1860208N11301 1860 19 NA CS NOT_NAMED 1860-07-27 12:00:00 TS 14.5000 -72.5000 main 250 250 _____________O -1 14.5000 -72.5000 TS 45 16 288
1860208N11301 1860 19 NA CS NOT_NAMED 1860-07-27 15:00:00 TS 14.7848 -73.2925 main 313 313 _____________P -1 14.7848 -73.2925 TS 50 17 291
1860208N11301 1860 19 NA CS NOT_NAMED 1860-07-27 18:00:00 TS 15.1000 -74.1000 main 325 306 _____________O -1 15.1000 -74.1000 TS 55 17 292
1860208N11301 1860 19 NA CS NOT_NAMED 1860-07-27 21:00:00 TS 15.3997 -74.9002 main 309 251 _____________P -1 15.3997 -74.9002 TS 55 17 291
1860208N11301 1860 19 NA CS NOT_NAMED 1860-07-28 00:00:00 TS 15.7000 -75.7000 main 251 204 _____________O -1 15.7000 -75.7000 TS 55 17 291
1860208N11301 1860 19 NA CS NOT_NAMED 1860-07-28 03:00:00 TS 15.9998 -76.5077 main 204 156 _____________P -1 15.9998 -76.5077 TS 55 17 291
1860208N11301 1860 19 NA CS NOT_NAMED 1860-07-28 06:00:00 TS 16.3000 -77.3000 main 157 144 _____________O -1 16.3000 -77.3000 TS 55 16 292
1860208N11301 1860 19 NA CS NOT_NAMED 1860-07-28 09:00:00 TS 16.6074 -78.0801 main 151 144 _____________P -1 16.6074 -78.0801 TS 55 16 293
1860208N11301 1860 19 NA CS NOT_NAMED 1860-07-28 12:00:00 TS 16.9000 -78.8000 main 151 144 _____________O -1 16.9000 -78.8000 TS 55 14 293
1860208N11301 1860 19 NA CS NOT_NAMED 1860-07-28 15:00:00 TS 17.1646 -79.4227 main 154 154 _____________P -1 17.1646 -79.4227 TS 55 13 294
1860208N11301 1860 19 NA CS NOT_NAMED 1860-07-28 18:00:00 TS 17.4000 -80.0000 main 191 191 _____________O -1 17.4000 -80.0000 TS 55 12 291
1860208N11301 1860 19 NA CS NOT_NAMED 1860-07-28 21:00:00 TS 17.5998 -80.6003 main 242 242 _____________P -1 17.5998 -80.6003 TS 55 12 289
1860208N11301 1860 19 NA CS NOT_NAMED 1860-07-29 00:00:00 TS 17.8000 -81.2000 main 299 299 _____________O -1 17.8000 -81.2000 TS 55 12 291
1860208N11301 1860 19 NA CS NOT_NAMED 1860-07-29 03:00:00 TS 18.0499 -81.8075 main 346 342 _____________P -1 18.0499 -81.8075 TS 55 12 294
1860208N11301 1860 19 NA CS NOT_NAMED 1860-07-29 06:00:00 TS 18.3000 -82.4000 main 345 324 _____________O -1 18.3000 -82.4000 TS 55 12 293
1860208N11301 1860 19 NA CS NOT_NAMED 1860-07-29 09:00:00 TS 18.5071 -82.9428 main 324 308 _____________P -1 18.5071 -82.9428 TS 55 11 291
1860208N11301 1860 19 NA CS NOT_NAMED 1860-07-29 12:00:00 TS 18.7000 -83.5000 main 310 305 _____________O -1 18.7000 -83.5000 TS 55 12 289
1860208N11301 1860 19 NA CS NOT_NAMED 1860-07-29 15:00:00 TS 18.9075 -84.1425 main 310 276 _____________P -1 18.9075 -84.1425 TS 55 13 288
1860208N11301 1860 19 NA CS NOT_NAMED 1860-07-29 18:00:00 TS 19.1000 -84.8000 main 276 212 _____________O -1 19.1000 -84.8000 TS 55 12 286
1860208N11301 1860 19 NA CS NOT_NAMED 1860-07-29 21:00:00 TS 19.2572 -85.4002 main 210 147 _____________P -1 19.2572 -85.4002 TS 55 12 285
1860208N11301 1860 19 NA CS NOT_NAMED 1860-07-30 00:00:00 TS 19.4000 -86.0000 main 147 83 _____________O -1 19.4000 -86.0000 TS 55 12 284
1860208N11301 1860 19 NA CS NOT_NAMED 1860-07-30 03:00:00 TS 19.5499 -86.6501 main 73 23 _____________P -1 19.5499 -86.6501 TS 50 13 284
1860208N11301 1860 19 NA CS NOT_NAMED 1860-07-30 06:00:00 TS 19.7000 -87.3000 main 23 0 _____________O -1 19.7000 -87.3000 TS 45 12 286
1860208N11301 1860 19 NA NA NOT_NAMED 1860-07-30 09:00:00 TS 19.8795 -87.8848 main 0 0 _____________P -1 19.8795 -87.8848 TS 40 12 285
1860208N11301 1860 19 NA NA NOT_NAMED 1860-07-30 12:00:00 TS 20.0000 -88.5000 main 0 0 _____________O -1 20.0000 -88.5000 TS 35 13 275
1860208N11301 1860 19 NA NA NOT_NAMED 1860-07-30 15:00:00 TS 19.9799 -89.2279 main 0 0 _____________P -1 19.9799 -89.2279 TS 32 14 266
1860208N11301 1860 19 NA NA NOT_NAMED 1860-07-30 18:00:00 TS 19.9000 -90.0000 main 0 0 _____________O -1 19.9000 -90.0000 TD 30 14 265
1860208N11301 1860 19 NA GM NOT_NAMED 1860-07-30 21:00:00 TS 19.8497 -90.7500 main 10 10 _____________P -1 19.8497 -90.7500 TD 32 14 266
1860208N11301 1860 19 NA GM NOT_NAMED 1860-07-31 00:00:00 TS 19.8000 -91.5000 main 84 84 _____________O -1 19.8000 -91.5000 TS 35 14 266
1860208N11301 1860 19 NA GM NOT_NAMED 1860-07-31 03:00:00 TS 19.7575 -92.2724 main 131 123 _____________P -1 19.7575 -92.2724 TS 42 14 266
1860208N11301 1860 19 NA GM NOT_NAMED 1860-07-31 06:00:00 TS 19.7000 -93.0000 main 127 127 _____________O -1 19.7000 -93.0000 TS 50 13 264
1860208N11301 1860 19 NA GM NOT_NAMED 1860-07-31 09:00:00 TS 19.6298 -93.6523 main 145 131 _____________P -1 19.6298 -93.6523 TS 55 11 260
1860208N11301 1860 19 NA GM NOT_NAMED 1860-07-31 12:00:00 TS 19.5000 -94.2000 main 131 88 _____________O -1 19.5000 -94.2000 TS 60 10 250
1860208N11301 1860 19 NA GM NOT_NAMED 1860-07-31 15:00:00 TS 19.2872 -94.6299 main 88 39 _____________P -1 19.2872 -94.6299 TS 67 9 236
1860208N11301 1860 19 NA GM NOT_NAMED 1860-07-31 18:00:00 TS 19.0000 -95.0000 main 39 0 _____________O -1 19.0000 -95.0000 HU 75 10 229
1860208N11301 1860 19 NA NA NOT_NAMED 1860-07-31 21:00:00 TS 18.6649 -95.4000 main 0 0 _____________P -1 18.6649 -95.4000 HU 60 10 227
1860208N11301 1860 19 NA NA NOT_NAMED 1860-08-01 00:00:00 TS 18.3000 -95.8000 main 0 0 _____________O -1 18.3000 -95.8000 TS 45 11 227
1860208N11301 1860 19 NA NA NOT_NAMED 1860-08-01 03:00:00 TS 17.9452 -96.2003 main 0 0 _____________P -1 17.9452 -96.2003 TS 37 10 227
1860208N11301 1860 19 NA NA NOT_NAMED 1860-08-01 06:00:00 TS 17.6000 -96.6000 main 0 _____________O -1 17.6000 -96.6000 TD 30 10 228

About IBTrACS Database

This database is a web-friendly format of International Best Track Archive for Climate Stewardship (IBTrACS), a global best track data archive curated by NOAA dating back to 1842.

Updated: 2021-10-08